Time;durP1;ratioP1;P1;durP2;ratioP2;P2;SDS_P1;SDS_P2;PMS_P1;PMS_P2;Temp;Humidity;BMP_temperature;BMP_pressure;BME280_temperature;BME280_humidity;BME280_pressure;Samples;Min_cycle;Max_cycle;Signal;HPM_P1;HPM_P2
2021/03/15 00:00:24;;;;;;;11.95;8.70;;;;;;;4.70;78.54;99457.84;2921389;81;21153;-63
2021/03/15 00:04:30;;;;;;;12.13;8.43;;;;;;;4.68;78.57;99457.11;2864286;81;21184;-63
2021/03/15 00:08:34;;;;;;;10.60;7.72;;;;;;;4.62;78.79;99448.80;2862023;83;21590;-64
2021/03/15 00:12:40;;;;;;;9.08;6.28;;;;;;;4.58;79.17;99450.33;2861768;83;21135;-63
2021/03/15 00:16:42;;;;;;;11.87;7.83;;;;;;;4.59;79.22;99451.19;2862127;83;21159;-64
2021/03/15 00:20:47;;;;;;;9.30;7.55;;;;;;;4.58;79.25;99445.06;2861771;83;21126;-63
2021/03/15 00:24:50;;;;;;;10.45;8.33;;;;;;;4.55;79.23;99452.36;2861548;83;21144;-63
2021/03/15 00:28:53;;;;;;;14.20;7.58;;;;;;;4.51;79.42;99458.30;2861538;83;21159;-64
2021/03/15 00:32:56;;;;;;;13.55;7.30;;;;;;;4.48;79.64;99452.40;2861490;83;21428;-63
2021/03/15 00:37:02;;;;;;;12.35;6.92;;;;;;;4.48;79.49;99461.62;2861813;83;21183;-64
2021/03/15 00:41:05;;;;;;;11.00;6.92;;;;;;;4.37;79.47;99461.91;2858554;83;21196;-63
2021/03/15 00:45:10;;;;;;;14.65;7.75;;;;;;;4.29;79.49;99461.58;2848299;83;21160;-63
2021/03/15 00:49:13;;;;;;;19.62;6.92;;;;;;;4.23;79.70;99460.69;2848112;83;21594;-64
2021/03/15 00:53:16;;;;;;;10.80;7.50;;;;;;;4.20;79.58;99459.59;2848132;82;21184;-64
2021/03/15 00:57:19;;;;;;;10.38;5.58;;;;;;;4.23;79.62;99454.97;2848174;82;21140;-63
2021/03/15 01:01:22;;;;;;;13.38;7.83;;;;;;;4.27;79.51;99455.58;2848322;82;21482;-63
2021/03/15 01:05:32;;;;;;;10.13;7.35;;;;;;;4.34;79.53;99458.17;2848394;82;21140;-64
2021/03/15 01:09:35;;;;;;;14.03;7.40;;;;;;;4.45;79.35;99452.62;2848515;83;21153;-64
2021/03/15 01:13:38;;;;;;;9.40;7.35;;;;;;;4.52;79.00;99457.81;2848348;82;21160;-63
2021/03/15 01:17:42;;;;;;;11.35;7.33;;;;;;;4.53;78.77;99451.63;2848192;82;21164;-64
2021/03/15 01:21:46;;;;;;;9.05;6.25;;;;;;;4.57;78.29;99459.19;2848394;82;21168;-64
2021/03/15 01:25:50;;;;;;;7.72;6.62;;;;;;;4.53;78.18;99455.58;2848543;82;21160;-63
2021/03/15 01:29:54;;;;;;;13.93;6.78;;;;;;;4.49;78.18;99452.31;2848270;83;21610;-64
2021/03/15 01:33:57;;;;;;;9.03;6.75;;;;;;;4.47;78.19;99449.41;2848188;82;21156;-65
2021/03/15 01:38:02;;;;;;;13.08;7.33;;;;;;;4.47;78.26;99442.81;2859204;80;21151;-65
2021/03/15 01:42:07;;;;;;;8.65;5.30;;;;;;;4.41;78.49;99434.41;2903566;81;21139;-64
2021/03/15 01:46:09;;;;;;;8.33;6.03;;;;;;;4.42;79.10;99437.86;2903465;82;21163;-63
2021/03/15 01:50:16;;;;;;;5.50;4.33;;;;;;;4.51;79.01;99439.88;2903511;82;21157;-64
2021/03/15 01:54:19;;;;;;;;;;;;;;;4.53;79.11;99442.41;2906203;82;21191;-63
2021/03/15 01:58:22;;;;;;;7.85;4.85;;;;;;;4.61;79.02;99441.84;2903395;81;20181;-63
2021/03/15 02:02:58;;;;;;;10.55;5.42;;;;;;;4.62;78.78;99442.20;2903143;82;21120;-63
2021/03/15 02:07:04;;;;;;;8.93;5.62;;;;;;;4.64;78.79;99439.02;2903224;82;21136;-64
2021/03/15 02:11:18;;;;;;;9.43;4.87;;;;;;;4.68;78.55;99437.35;2903796;82;21193;-63
2021/03/15 02:15:44;;;;;;;5.72;4.08;;;;;;;4.72;78.54;99430.08;2996727;77;22993;-64
2021/03/15 02:20:29;;;;;;;7.70;5.28;;;;;;;4.70;78.64;99426.22;2950856;80;21125;-62
2021/03/15 02:24:40;;;;;;;9.23;6.42;;;;;;;4.68;78.53;99416.27;2950460;80;21138;-64
2021/03/15 02:29:39;;;;;;;6.87;5.17;;;;;;;4.67;78.62;99411.95;2949489;80;21130;-64
2021/03/15 02:34:07;;;;;;;7.10;5.03;;;;;;;4.68;78.37;99404.91;2950683;80;21117;-64
2021/03/15 02:38:12;;;;;;;7.72;5.78;;;;;;;4.65;78.45;99413.86;2950767;80;21082;-64
2021/03/15 02:42:18;;;;;;;5.75;5.08;;;;;;;4.65;78.48;99415.67;2920949;80;21142;-63
2021/03/15 02:46:24;;;;;;;8.10;4.90;;;;;;;4.62;78.31;99418.04;2950797;80;21588;-64
2021/03/15 02:50:28;;;;;;;9.13;4.90;;;;;;;4.56;78.44;99408.77;2905694;79;21178;-63
2021/03/15 02:54:33;;;;;;;9.75;6.03;;;;;;;4.56;78.53;99404.00;2899446;81;21811;-64
2021/03/15 02:58:39;;;;;;;7.90;5.17;;;;;;;4.56;78.68;99406.63;2899488;82;21182;-64
2021/03/15 03:02:47;;;;;;;6.40;5.30;;;;;;;4.61;78.49;99412.41;2899541;82;21188;-64
2021/03/15 03:06:53;;;;;;;4.28;3.87;;;;;;;4.64;78.26;99416.13;2899277;81;21165;-64
2021/03/15 03:10:58;;;;;;;10.57;5.93;;;;;;;4.69;78.08;99421.08;2899635;82;21699;-64
2021/03/15 03:15:05;;;;;;;9.43;5.42;;;;;;;4.65;78.22;99415.18;2899348;81;21567;-64
2021/03/15 03:19:16;;;;;;;8.75;5.03;;;;;;;4.65;78.55;99415.18;2899528;82;21177;-63
2021/03/15 03:23:21;;;;;;;5.72;4.95;;;;;;;4.71;78.94;99416.05;2899488;82;21157;-64
2021/03/15 03:27:25;;;;;;;5.75;4.35;;;;;;;4.80;79.01;99425.09;2898538;81;21157;-64
2021/03/15 03:31:35;;;;;;;5.97;4.83;;;;;;;4.90;78.98;99417.37;2898940;82;21152;-64
2021/03/15 03:35:38;;;;;;;4.78;3.42;;;;;;;5.02;79.02;99417.44;2869620;82;21153;-64
2021/03/15 03:39:41;;;;;;;4.62;3.83;;;;;;;5.12;79.17;99425.06;2898748;82;21161;-64
2021/03/15 03:43:44;;;;;;;6.25;5.35;;;;;;;5.25;79.21;99413.95;2898579;82;21125;-64
2021/03/15 03:47:48;;;;;;;7.15;4.20;;;;;;;5.39;79.09;99418.70;2898595;80;21180;-64
2021/03/15 03:52:07;;;;;;;8.30;5.80;;;;;;;5.50;78.55;99418.75;2898601;81;21110;-65
2021/03/15 03:56:17;;;;;;;8.48;6.33;;;;;;;5.57;78.01;99419.97;2898737;82;21145;-64
2021/03/15 04:00:22;;;;;;;11.30;4.40;;;;;;;5.58;77.95;99429.56;2898525;81;21619;-65
2021/03/15 04:04:28;;;;;;;10.05;4.85;;;;;;;5.55;77.62;99424.52;2898922;82;21156;-66
2021/03/15 04:08:56;;;;;;;8.20;4.87;;;;;;;5.56;77.79;99427.98;2898704;81;21615;-68
2021/03/15 04:13:12;;;;;;;10.72;6.03;;;;;;;5.57;77.87;99423.06;2903314;81;21614;-66
2021/03/15 04:17:26;;;;;;;8.05;5.80;;;;;;;5.58;78.07;99421.65;2921521;81;21602;-64
2021/03/15 04:21:31;;;;;;;7.50;5.40;;;;;;;5.64;77.91;99426.09;2921762;81;21132;-64
2021/03/15 04:25:37;;;;;;;7.45;5.30;;;;;;;5.66;77.99;99417.58;2896523;81;21614;-64
2021/03/15 04:29:43;;;;;;;6.42;4.05;;;;;;;5.68;78.04;99426.22;2921705;81;21180;-65
2021/03/15 04:33:47;;;;;;;7.03;5.00;;;;;;;5.70;78.09;99426.97;2921464;81;21128;-65
2021/03/15 04:37:51;;;;;;;7.95;5.10;;;;;;;5.74;78.35;99437.66;2921512;81;21116;-66
2021/03/15 04:41:57;;;;;;;8.73;5.55;;;;;;;5.74;78.29;99433.70;2921600;81;21153;-65
2021/03/15 04:46:00;;;;;;;7.83;6.00;;;;;;;5.75;78.46;99435.38;2922843;81;21148;-65
2021/03/15 04:50:06;;;;;;;7.15;4.95;;;;;;;5.76;78.46;99430.45;2922106;80;21125;-65
2021/03/15 04:54:10;;;;;;;7.33;5.05;;;;;;;5.78;78.56;99432.50;2921911;81;21184;-64
2021/03/15 04:58:16;;;;;;;7.35;5.67;;;;;;;5.79;78.53;99435.50;2921841;81;21160;-66
2021/03/15 05:02:21;;;;;;;11.03;5.42;;;;;;;5.85;78.36;99432.38;2921806;81;21141;-65
2021/03/15 05:06:27;;;;;;;12.45;6.62;;;;;;;5.89;78.38;99438.75;2921997;81;21120;-65
2021/03/15 05:10:31;;;;;;;9.20;5.75;;;;;;;5.94;78.36;99441.41;2921581;81;21627;-65
2021/03/15 05:14:35;;;;;;;4.87;4.35;;;;;;;5.96;78.25;99447.41;2921685;81;21132;-64
2021/03/15 05:18:39;;;;;;;7.55;5.78;;;;;;;5.94;78.34;99444.05;2921914;81;21145;-63
2021/03/15 05:22:44;;;;;;;7.42;6.17;;;;;;;6.00;78.42;99453.30;2921730;81;21153;-63
2021/03/15 05:26:48;;;;;;;6.70;4.87;;;;;;;6.08;78.52;99456.22;2921808;81;21133;-64
2021/03/15 05:30:52;;;;;;;16.85;6.65;;;;;;;6.17;78.21;99451.20;2921755;81;21474;-64
2021/03/15 05:34:56;;;;;;;8.38;5.70;;;;;;;6.30;77.88;99457.23;2921527;81;21594;-64
2021/03/15 05:38:59;;;;;;;7.12;6.17;;;;;;;6.30;77.88;99454.59;2902341;81;21092;-64
2021/03/15 05:43:33;;;;;;;7.92;6.05;;;;;;;6.36;78.00;99455.43;2871158;82;21168;-64
2021/03/15 05:48:16;;;;;;;11.12;7.17;;;;;;;6.46;77.63;99452.05;2871417;82;21104;-64
2021/03/15 05:52:30;;;;;;;13.40;8.40;;;;;;;6.51;77.40;99456.02;2813808;84;21170;-63
2021/03/15 05:56:41;;;;;;;10.08;7.60;;;;;;;6.56;77.46;99445.10;2767304;85;21178;-64
2021/03/15 06:00:52;;;;;;;10.95;7.85;;;;;;;6.63;77.35;99446.78;2813632;84;21216;-65
2021/03/15 06:05:28;;;;;;;10.85;7.95;;;;;;;6.68;77.47;99440.18;2813789;84;21155;-64
2021/03/15 06:09:38;;;;;;;9.98;6.95;;;;;;;6.73;77.16;99434.51;2850493;82;22153;-63
2021/03/15 06:13:41;;;;;;;11.12;8.80;;;;;;;6.79;76.98;99435.83;2901467;80;21633;-65
2021/03/15 06:17:45;;;;;;;10.45;8.38;;;;;;;6.79;76.88;99435.36;2933760;81;22359;-65
2021/03/15 06:21:49;;;;;;;10.82;7.62;;;;;;;6.82;76.39;99434.25;2933755;81;21122;-64
2021/03/15 06:25:54;;;;;;;17.30;9.78;;;;;;;6.85;76.28;99439.30;2933616;81;21173;-63
2021/03/15 06:29:58;;;;;;;11.95;8.00;;;;;;;6.87;76.31;99437.36;2934199;81;21548;-63
2021/03/15 06:34:03;;;;;;;12.05;8.63;;;;;;;6.87;76.61;99440.01;2933530;81;21145;-64
2021/03/15 06:38:07;;;;;;;15.88;10.80;;;;;;;6.91;76.74;99441.47;2933858;81;21169;-65
2021/03/15 06:42:16;;;;;;;13.00;9.43;;;;;;;6.96;76.86;99444.58;2930840;81;21126;-66
2021/03/15 06:46:20;;;;;;;14.73;8.33;;;;;;;7.03;76.69;99436.14;2933989;81;21122;-64
2021/03/15 06:50:24;;;;;;;12.82;9.73;;;;;;;7.10;77.09;99446.09;2933853;79;21183;-64
2021/03/15 06:54:28;;;;;;;13.48;9.53;;;;;;;7.16;76.87;99438.16;2933720;81;21166;-65
2021/03/15 06:58:32;;;;;;;13.10;10.40;;;;;;;7.22;76.72;99436.33;2933735;81;21608;-64
2021/03/15 07:02:35;;;;;;;13.35;10.95;;;;;;;7.29;76.33;99435.34;2934206;81;21129;-64
2021/03/15 07:06:45;;;;;;;15.38;8.93;;;;;;;7.33;76.27;99434.63;2934327;81;21166;-65
2021/03/15 07:10:48;;;;;;;18.52;11.33;;;;;;;7.37;76.33;99439.55;2934128;81;21158;-65
2021/03/15 07:14:54;;;;;;;18.12;11.43;;;;;;;7.43;76.29;99444.32;2933669;81;21157;-65
2021/03/15 07:19:04;;;;;;;14.47;8.85;;;;;;;7.49;76.17;99441.66;2934558;81;21157;-64
2021/03/15 07:23:07;;;;;;;12.07;8.08;;;;;;;7.53;76.17;99440.43;2910544;81;21157;-64
2021/03/15 07:27:10;;;;;;;13.98;9.53;;;;;;;7.59;76.70;99443.06;2934266;81;21611;-64
2021/03/15 07:31:33;;;;;;;14.90;9.33;;;;;;;7.66;76.20;99440.72;2934006;81;21173;-64
2021/03/15 07:35:39;;;;;;;13.78;10.08;;;;;;;7.71;76.34;99443.84;2934218;81;21154;-65
2021/03/15 07:39:51;;;;;;;16.85;12.20;;;;;;;7.84;76.09;99443.15;2934283;81;21157;-64
2021/03/15 07:43:55;;;;;;;17.27;10.08;;;;;;;8.00;76.17;99441.86;2902887;81;21112;-63
2021/03/15 07:48:24;;;;;;;16.70;10.00;;;;;;;8.11;76.77;99446.24;2900285;82;21602;-65
2021/03/15 07:52:40;;;;;;;14.83;10.43;;;;;;;8.31;76.12;99447.67;2900650;82;21160;-66
2021/03/15 07:56:43;;;;;;;10.30;8.93;;;;;;;8.47;75.40;99449.86;2900394;82;21167;-65
2021/03/15 08:00:46;;;;;;;13.35;9.80;;;;;;;8.51;73.83;99444.67;2900779;82;21144;-64
2021/03/15 08:04:53;;;;;;;16.12;9.50;;;;;;;8.58;74.15;99449.78;2900118;82;21650;-66
2021/03/15 08:08:55;;;;;;;13.48;9.30;;;;;;;8.73;73.88;99454.73;2900306;82;21136;-64
2021/03/15 08:13:00;;;;;;;15.48;10.55;;;;;;;8.97;73.85;99455.21;2899937;82;21144;-65
2021/03/15 08:17:04;;;;;;;14.93;10.95;;;;;;;9.17;73.85;99443.31;2896287;82;21622;-62
2021/03/15 08:21:12;;;;;;;16.62;9.08;;;;;;;9.22;72.02;99435.77;2895705;82;21558;-63
2021/03/15 08:25:15;;;;;;;12.07;9.25;;;;;;;9.21;72.21;99440.73;2894444;82;21168;-64
2021/03/15 08:29:19;;;;;;;11.35;8.28;;;;;;;9.28;72.84;99439.22;2896106;82;21164;-66
2021/03/15 08:33:22;;;;;;;11.45;7.40;;;;;;;9.35;72.03;99447.47;2895871;82;21144;-63
2021/03/15 08:37:56;;;;;;;13.98;9.48;;;;;;;9.35;71.55;99447.47;2896076;82;21610;-65
2021/03/15 08:42:23;;;;;;;12.03;8.88;;;;;;;9.43;72.02;99440.97;2896120;82;21614;-66
2021/03/15 08:46:33;;;;;;;11.60;7.85;;;;;;;9.54;71.17;99433.34;2892457;82;21162;-64
2021/03/15 08:50:44;;;;;;;13.25;8.23;;;;;;;9.68;70.21;99436.06;2896184;82;21615;-66
2021/03/15 08:54:48;;;;;;;12.30;8.00;;;;;;;9.85;68.79;99422.57;2896209;82;21156;-66
2021/03/15 08:58:55;;;;;;;11.43;7.33;;;;;;;9.91;68.52;99417.16;2896223;82;21128;-65
2021/03/15 09:02:58;;;;;;;11.63;8.90;;;;;;;9.91;67.07;99421.14;2896355;82;21140;-64
2021/03/15 09:07:04;;;;;;;12.43;7.83;;;;;;;9.99;68.96;99416.44;2896242;82;21114;-65
2021/03/15 09:11:11;;;;;;;10.30;7.15;;;;;;;10.19;68.71;99407.09;2895913;82;21171;-65
2021/03/15 09:15:18;;;;;;;12.90;8.08;;;;;;;10.16;66.49;99400.27;2892935;81;21570;-64
2021/03/15 09:19:34;;;;;;;14.53;8.95;;;;;;;10.19;66.93;99402.62;2870162;82;21164;-65
2021/03/15 09:23:36;;;;;;;11.65;8.00;;;;;;;10.27;67.64;99404.56;2895966;82;21603;-65
2021/03/15 09:27:45;;;;;;;10.95;7.55;;;;;;;10.31;66.53;99386.48;2896145;82;21164;-65
2021/03/15 09:32:07;;;;;;;10.20;6.55;;;;;;;10.29;65.07;99405.25;2896012;82;21136;-66
2021/03/15 09:36:11;;;;;;;10.63;7.47;;;;;;;10.26;65.34;99396.24;2896216;82;21172;-66
2021/03/15 09:40:16;;;;;;;7.47;6.10;;;;;;;10.25;64.32;99388.74;2896025;80;21124;-64
2021/03/15 09:44:52;;;;;;;10.87;5.10;;;;;;;10.28;64.80;99383.13;2896546;82;21120;-65
2021/03/15 09:48:56;;;;;;;7.67;5.45;;;;;;;10.31;63.37;99392.64;2860088;83;21138;-64
2021/03/15 09:53:09;;;;;;;7.50;5.47;;;;;;;10.39;63.78;99382.61;2855414;82;21166;-64
2021/03/15 09:57:14;;;;;;;9.25;5.87;;;;;;;10.56;65.14;99394.30;2855345;83;21183;-63
2021/03/15 10:01:20;;;;;;;10.15;6.05;;;;;;;10.77;63.17;99386.09;2855054;83;21170;-64
2021/03/15 10:05:26;;;;;;;9.83;6.00;;;;;;;10.94;61.69;99379.61;2855421;83;21190;-66
2021/03/15 10:09:31;;;;;;;10.18;6.75;;;;;;;11.00;62.09;99381.66;2845507;83;21818;-65
2021/03/15 10:13:34;;;;;;;14.33;6.67;;;;;;;11.29;63.32;99377.45;2808177;84;21117;-64
2021/03/15 10:17:38;;;;;;;21.33;6.62;;;;;;;11.49;61.29;99382.61;2808141;84;21136;-65
2021/03/15 10:21:43;;;;;;;8.57;5.73;;;;;;;11.77;60.31;99374.48;2804064;84;21137;-64
2021/03/15 10:26:02;;;;;;;6.30;5.22;;;;;;;12.07;58.57;99368.86;2807703;84;21161;-65
2021/03/15 10:30:10;;;;;;;8.40;5.87;;;;;;;12.20;58.61;99363.94;2807562;84;21176;-66
2021/03/15 10:34:14;;;;;;;8.10;5.70;;;;;;;12.32;58.14;99356.49;2807562;84;21156;-65
2021/03/15 10:38:21;;;;;;;10.13;5.20;;;;;;;12.30;58.28;99349.16;2807636;84;21188;-66
2021/03/15 10:42:26;;;;;;;6.87;4.03;;;;;;;12.21;57.34;99348.28;2845472;83;21186;-66
2021/03/15 10:46:32;;;;;;;5.83;3.70;;;;;;;12.07;55.65;99349.72;2856360;83;21458;-67
2021/03/15 10:50:39;;;;;;;5.08;3.72;;;;;;;11.86;56.19;99343.39;2856116;83;21184;-67
2021/03/15 10:54:43;;;;;;;4.08;3.65;;;;;;;11.61;56.32;99338.42;2857251;83;21605;-65
2021/03/15 10:58:50;;;;;;;3.20;2.85;;;;;;;11.24;54.17;99326.98;2857201;83;21166;-64
2021/03/15 11:02:54;;;;;;;7.95;3.58;;;;;;;11.06;55.58;99327.83;2856942;83;21154;-65
2021/03/15 11:06:57;;;;;;;4.28;2.80;;;;;;;11.02;56.76;99325.64;2857077;83;21162;-65
2021/03/15 11:11:19;;;;;;;6.08;3.65;;;;;;;11.22;57.52;99326.30;2820291;84;21602;-66
2021/03/15 11:15:32;;;;;;;5.12;3.35;;;;;;;11.54;56.69;99311.58;2818084;84;21145;-65
2021/03/15 11:19:52;;;;;;;4.97;4.00;;;;;;;11.81;55.53;99310.58;2799076;85;21772;-65
2021/03/15 11:23:55;;;;;;;9.83;3.52;;;;;;;12.05;55.99;99301.06;2820537;84;21184;-64
2021/03/15 11:28:17;;;;;;;5.65;2.65;;;;;;;12.12;53.73;99304.75;2818023;84;21626;-67
2021/03/15 11:32:20;;;;;;;3.08;2.45;;;;;;;12.08;53.09;99300.74;2818008;84;21647;-65
2021/03/15 11:36:28;;;;;;;5.15;3.27;;;;;;;12.26;53.35;99297.97;2799228;85;21193;-65
2021/03/15 11:40:43;;;;;;;3.40;2.55;;;;;;;12.53;53.14;99298.73;2820592;84;21169;-65
2021/03/15 11:44:45;;;;;;;3.25;2.22;;;;;;;12.47;52.15;99292.70;2817909;84;21206;-65
2021/03/15 11:48:49;;;;;;;7.50;4.08;;;;;;;12.22;52.58;99286.48;2820449;84;21188;-66
2021/03/15 11:52:53;;;;;;;5.30;2.30;;;;;;;12.06;52.47;99285.41;2817847;84;21189;-64
2021/03/15 11:56:56;;;;;;;4.42;2.62;;;;;;;11.98;52.36;99289.33;2804653;84;21146;-66
2021/03/15 12:00:59;;;;;;;5.03;3.20;;;;;;;11.95;53.28;99273.66;2820658;84;21145;-66
2021/03/15 12:05:10;;;;;;;6.67;3.22;;;;;;;11.97;53.42;99274.33;2820677;84;21165;-65
2021/03/15 12:09:13;;;;;;;3.67;2.95;;;;;;;11.96;53.18;99266.84;2820920;84;21126;-64
2021/03/15 12:13:16;;;;;;;6.33;3.05;;;;;;;11.82;52.81;99268.77;2820500;84;21166;-65
2021/03/15 12:17:20;;;;;;;5.95;2.80;;;;;;;11.69;52.95;99271.88;2820791;84;21643;-64
2021/03/15 12:21:23;;;;;;;6.20;3.65;;;;;;;11.62;54.46;99264.19;2820376;84;21758;-66
2021/03/15 12:25:26;;;;;;;3.92;2.85;;;;;;;11.44;54.15;99274.39;2820324;84;21157;-65
2021/03/15 12:29:31;;;;;;;8.00;2.72;;;;;;;11.32;54.76;99271.64;2820597;84;21154;-65
2021/03/15 12:33:36;;;;;;;3.67;2.08;;;;;;;11.26;54.47;99261.11;2820364;84;21161;-65
2021/03/15 12:37:40;;;;;;;3.22;2.02;;;;;;;11.06;52.93;99273.78;2820358;84;21573;-65
2021/03/15 12:41:42;;;;;;;2.02;1.60;;;;;;;10.98;54.18;99271.88;2820457;84;21169;-65
2021/03/15 12:45:46;;;;;;;2.72;1.62;;;;;;;11.02;53.28;99264.44;2820430;84;21189;-66
2021/03/15 12:49:50;;;;;;;2.27;1.60;;;;;;;11.11;54.64;99264.83;2773685;85;21600;-66
2021/03/15 12:53:53;;;;;;;6.45;2.15;;;;;;;11.13;54.80;99260.19;2774293;85;21186;-65
2021/03/15 12:57:56;;;;;;;4.40;1.80;;;;;;;11.09;55.47;99263.64;2773923;85;21599;-66
2021/03/15 13:01:59;;;;;;;3.00;2.30;;;;;;;11.03;56.51;99262.94;2773935;85;21166;-66
2021/03/15 13:06:03;;;;;;;2.85;2.20;;;;;;;10.77;55.91;99268.20;2773865;85;22286;-64
2021/03/15 13:10:07;;;;;;;10.32;6.10;;;;;;;10.58;58.40;99274.00;2774129;85;21150;-65
2021/03/15 13:14:13;;;;;;;8.83;5.20;;;;;;;10.32;59.81;99271.19;2773961;85;21178;-65
2021/03/15 13:18:16;;;;;;;8.83;6.78;;;;;;;10.14;61.46;99279.48;2774425;85;21154;-65
2021/03/15 13:22:19;;;;;;;10.23;4.78;;;;;;;10.02;62.18;99288.62;2773777;85;21143;-65
2021/03/15 13:26:23;;;;;;;9.08;6.42;;;;;;;9.78;62.94;99293.96;2773722;85;21620;-66
2021/03/15 13:30:28;;;;;;;34.03;18.27;;;;;;;9.54;64.39;99295.30;2773702;85;21190;-66
2021/03/15 13:34:31;;;;;;;21.75;12.90;;;;;;;9.44;65.44;99289.19;2773698;85;21672;-64
2021/03/15 13:38:37;;;;;;;14.63;10.10;;;;;;;9.22;67.86;99299.62;2787963;84;21191;-66
2021/03/15 13:42:41;;;;;;;35.95;15.00;;;;;;;9.09;68.57;99297.26;2823041;84;21198;-63
2021/03/15 13:46:45;;;;;;;40.12;19.27;;;;;;;9.05;69.36;99302.50;2822872;84;21173;-63
2021/03/15 13:50:49;;;;;;;55.78;22.90;;;;;;;9.08;69.45;99307.52;2799359;84;21219;-64
2021/03/15 13:54:52;;;;;;;35.20;20.72;;;;;;;9.06;69.11;99308.16;2822638;84;21589;-64
2021/03/15 13:58:55;;;;;;;50.67;25.60;;;;;;;9.10;69.46;99310.87;2822782;84;21198;-63
2021/03/15 14:03:01;;;;;;;49.45;24.65;;;;;;;9.13;70.38;99304.77;2822910;84;21154;-65
2021/03/15 14:07:04;;;;;;;12.88;8.60;;;;;;;9.16;70.81;99305.50;2822856;84;21487;-64
2021/03/15 14:11:07;;;;;;;31.45;20.48;;;;;;;9.29;71.77;99304.22;2823072;84;21138;-64
2021/03/15 14:15:12;;;;;;;19.48;12.65;;;;;;;9.50;71.52;99300.55;2812552;84;21150;-63
2021/03/15 14:19:16;;;;;;;14.35;10.93;;;;;;;9.73;70.60;99300.20;2823301;84;21178;-63
2021/03/15 14:23:19;;;;;;;9.78;8.60;;;;;;;9.89;70.35;99297.44;2823077;84;21189;-65
2021/03/15 14:27:23;;;;;;;11.73;8.45;;;;;;;10.05;70.40;99304.30;2822647;84;21178;-63
2021/03/15 14:31:27;;;;;;;12.90;9.18;;;;;;;10.12;71.11;99309.35;2822635;84;21174;-65
2021/03/15 14:35:30;;;;;;;4.28;3.75;;;;;;;10.08;70.59;99313.30;2822574;84;21142;-67
2021/03/15 14:39:34;;;;;;;6.00;3.87;;;;;;;10.05;70.57;99307.42;2822006;84;21495;-67
2021/03/15 14:43:37;;;;;;;5.95;4.37;;;;;;;10.03;69.66;99303.61;2822760;82;21174;-66
2021/03/15 14:47:40;;;;;;;4.15;3.62;;;;;;;9.97;69.34;99302.84;2823627;84;21182;-66
2021/03/15 14:51:44;;;;;;;4.55;2.22;;;;;;;9.96;69.04;99305.16;2817336;84;21134;-65
2021/03/15 14:55:47;;;;;;;3.72;3.10;;;;;;;10.03;69.85;99298.77;2819908;84;21146;-66
2021/03/15 14:59:50;;;;;;;4.25;3.92;;;;;;;10.06;68.77;99297.14;2819563;84;21166;-64
2021/03/15 15:03:53;;;;;;;6.53;2.92;;;;;;;10.04;68.34;99295.98;2820095;84;21174;-65
2021/03/15 15:07:57;;;;;;;3.10;2.80;;;;;;;10.03;68.38;99298.77;2819673;84;21177;-65
2021/03/15 15:12:00;;;;;;;4.47;2.70;;;;;;;9.96;68.39;99294.53;2819811;84;21178;-66
2021/03/15 15:16:04;;;;;;;5.05;3.72;;;;;;;9.88;68.00;99298.42;2815896;84;21160;-61
2021/03/15 15:20:09;;;;;;;4.30;3.40;;;;;;;9.94;68.82;99297.83;2776329;85;21148;-66
2021/03/15 15:24:13;;;;;;;4.95;4.45;;;;;;;10.00;68.15;99287.93;2848626;83;21576;-67
2021/03/15 15:28:16;;;;;;;3.92;3.52;;;;;;;10.03;67.91;99303.61;2855096;83;21168;-65
2021/03/15 15:32:18;;;;;;;5.97;3.77;;;;;;;10.04;67.58;99301.77;2855331;83;21153;-67
2021/03/15 15:36:24;;;;;;;7.67;5.83;;;;;;;10.00;67.40;99294.57;2855136;83;21159;-65
2021/03/15 15:40:29;;;;;;;10.28;5.50;;;;;;;9.79;68.18;99299.62;2854717;83;21502;-70
2021/03/15 15:44:33;;;;;;;6.65;5.70;;;;;;;9.69;68.76;99306.80;2836982;83;21204;-66
2021/03/15 15:48:37;;;;;;;5.42;4.90;;;;;;;9.55;69.66;99309.42;2861301;83;21194;-66
2021/03/15 15:52:41;;;;;;;6.15;5.55;;;;;;;9.35;70.44;99317.89;2868302;83;21168;-64
2021/03/15 15:56:44;;;;;;;6.55;5.80;;;;;;;9.08;71.97;99317.63;2868248;83;21196;-67
2021/03/15 16:00:47;;;;;;;3.95;3.35;;;;;;;8.80;73.12;99322.80;2861054;83;21111;-65
2021/03/15 16:04:50;;;;;;;4.17;3.22;;;;;;;8.51;73.92;99324.90;2868113;83;21176;-65
2021/03/15 16:08:55;;;;;;;4.35;3.95;;;;;;;8.34;74.59;99329.02;2867336;82;21165;-66
2021/03/15 16:12:58;;;;;;;5.45;4.50;;;;;;;8.24;75.05;99328.98;2868020;83;21586;-64
2021/03/15 16:17:02;;;;;;;4.55;3.37;;;;;;;8.16;75.38;99335.45;2868096;83;21184;-64
2021/03/15 16:21:06;;;;;;;6.28;3.98;;;;;;;8.09;76.03;99333.82;2868179;83;21172;-65
2021/03/15 16:25:10;;;;;;;3.27;2.15;;;;;;;8.01;76.13;99338.92;2868093;83;21173;-66
2021/03/15 16:29:15;;;;;;;4.37;3.12;;;;;;;7.90;76.00;99337.20;2868074;83;21173;-66
2021/03/15 16:33:18;;;;;;;5.78;4.58;;;;;;;7.88;76.63;99336.50;2819832;84;21216;-65
2021/03/15 16:37:22;;;;;;;8.93;5.58;;;;;;;7.92;76.87;99345.03;2823269;81;21171;-65
2021/03/15 16:41:25;;;;;;;6.67;4.03;;;;;;;7.93;77.03;99340.09;2860824;83;21183;-67
2021/03/15 16:45:28;;;;;;;21.35;6.25;;;;;;;7.91;76.90;99342.03;2790638;84;21155;-67
2021/03/15 16:49:32;;;;;;;5.65;3.55;;;;;;;7.91;76.98;99346.00;2761649;85;21159;-66
2021/03/15 16:53:35;;;;;;;9.60;4.90;;;;;;;7.83;76.88;99348.80;2826087;84;21169;-66
2021/03/15 16:57:39;;;;;;;15.43;6.30;;;;;;;7.84;77.31;99354.95;2854918;83;21165;-68
2021/03/15 17:01:42;;;;;;;14.45;6.58;;;;;;;7.83;77.43;99357.25;2854923;83;21184;-66
2021/03/15 17:05:46;;;;;;;4.25;3.35;;;;;;;7.79;77.61;99362.45;2852954;83;21196;-67
2021/03/15 17:09:51;;;;;;;7.35;5.05;;;;;;;7.79;77.74;99365.92;2847282;83;21184;-68
2021/03/15 17:13:54;;;;;;;10.85;5.72;;;;;;;7.79;77.44;99368.57;2842342;83;21137;-66
2021/03/15 17:17:57;;;;;;;9.10;5.17;;;;;;;7.81;77.50;99374.57;2854975;83;22339;-65
2021/03/15 17:22:00;;;;;;;9.63;6.33;;;;;;;7.77;77.47;99378.45;2846435;83;21181;-67
2021/03/15 17:26:03;;;;;;;6.85;6.08;;;;;;;7.72;77.74;99378.02;2854974;83;21519;-66
2021/03/15 17:30:09;;;;;;;6.92;5.00;;;;;;;7.69;77.99;99380.92;2855082;83;21157;-67
2021/03/15 17:34:14;;;;;;;6.62;5.15;;;;;;;7.68;78.47;99381.89;2855019;83;21161;-68
2021/03/15 17:38:17;;;;;;;9.93;6.17;;;;;;;7.69;78.28;99378.28;2854382;83;21623;-66
2021/03/15 17:42:23;;;;;;;7.62;5.75;;;;;;;7.62;78.01;99375.78;2842345;83;21196;-67
2021/03/15 17:46:26;;;;;;;9.68;5.83;;;;;;;7.56;77.97;99379.77;2807246;84;21165;-66
2021/03/15 17:50:29;;;;;;;12.63;10.98;;;;;;;7.56;77.87;99377.13;2816954;84;21197;-67
2021/03/15 17:54:32;;;;;;;13.08;8.43;;;;;;;7.47;77.87;99378.77;2819983;81;21173;-66
2021/03/15 17:58:35;;;;;;;8.15;6.47;;;;;;;7.40;77.67;99384.19;2763235;86;21641;-65
2021/03/15 18:02:38;;;;;;;14.50;7.78;;;;;;;7.30;77.60;99376.17;2764093;85;21155;-65
2021/03/15 18:06:43;;;;;;;16.23;9.70;;;;;;;7.19;77.82;99381.03;2763520;85;21199;-66
2021/03/15 18:10:46;;;;;;;7.83;6.60;;;;;;;7.07;78.00;99374.95;2815305;83;21149;-65
2021/03/15 18:14:50;;;;;;;7.67;5.25;;;;;;;6.99;77.96;99376.89;2761081;85;21627;-65
2021/03/15 18:18:53;;;;;;;9.28;5.78;;;;;;;6.93;77.96;99372.58;2807706;84;21185;-65
2021/03/15 18:22:58;;;;;;;13.00;8.75;;;;;;;6.86;78.10;99374.88;2807483;84;21141;-65
2021/03/15 18:27:01;;;;;;;7.25;6.17;;;;;;;6.79;78.16;99375.03;2807890;84;21189;-65
2021/03/15 18:31:08;;;;;;;13.22;7.40;;;;;;;6.76;78.09;99372.64;2805796;84;21194;-66
2021/03/15 18:35:12;;;;;;;10.88;8.30;;;;;;;6.68;78.04;99378.54;2800889;84;21190;-65
2021/03/15 18:39:15;;;;;;;8.95;7.28;;;;;;;6.58;78.50;99382.40;2793941;85;21173;-66
2021/03/15 18:43:19;;;;;;;9.28;7.47;;;;;;;6.54;78.59;99385.76;2781342;85;21205;-67
2021/03/15 18:47:22;;;;;;;10.20;7.25;;;;;;;6.52;78.57;99385.54;2793587;84;21185;-65
2021/03/15 18:51:25;;;;;;;10.28;7.20;;;;;;;6.58;78.16;99392.97;2778426;85;21536;-67
2021/03/15 18:55:28;;;;;;;15.18;10.43;;;;;;;6.64;77.65;99386.36;2824993;84;21144;-66
2021/03/15 18:59:31;;;;;;;12.73;9.33;;;;;;;6.59;76.90;99389.86;2858628;83;21505;-65
2021/03/15 19:03:34;;;;;;;12.20;7.45;;;;;;;6.47;76.63;99382.40;2820190;84;21702;-67
2021/03/15 19:07:38;;;;;;;14.98;11.00;;;;;;;6.25;77.13;99384.95;2858610;83;21141;-64
2021/03/15 19:11:41;;;;;;;57.67;34.23;;;;;;;6.16;77.83;99380.87;2779834;85;21216;-65
2021/03/15 19:15:47;;;;;;;66.80;35.83;;;;;;;6.08;77.97;99380.97;2829562;84;21153;-69
2021/03/15 19:19:50;;;;;;;49.65;33.05;;;;;;;6.02;78.37;99377.48;2825323;84;21185;-67